Latest Coastal Weather Observations for Portland Airport

IDV60701

Issued at 10:41 pm EDT Monday 23 October 2017 (issued every 10 minutes, with the page automatically refreshed every 10 minutes)

About coastal observations | Map of coastal stations | Coastal observations for VIC | Marine services | Other Formats
Station Details ID: 090171 Name: CASHMORE AIRPORT Lat: -38.31 Lon: 141.47 Height: 80.9 m
Data from the previous 72 hours. | See also: Recent months at Portland Airport
Date/Time
EDT
Temp
°C
Wind Pressure Rain since
9am
mm
Weather Cloud Vis
km
Sea
Height
m
Swell
Dir  Spd
kts
Gust
kts
hPa Trend Height
m
Period
s
Dir
23/10:30pm 11.2 W 3 4 1018.6 - 0.0 - Partly cloudy 10 - - - -
23/10:00pm 11.8 W 3 5 1018.6 - 0.0 - Partly cloudy 10 - - - -
23/09:30pm 12.1 CALM 0 3 1018.7 - 0.0 - Partly cloudy 10 - - - -
23/09:12pm 12.0 WNW 3 5 1018.4 - 0.0 - Partly cloudy 10 - - - -
23/09:00pm 11.9 WNW 3 6 1018.2 - 0.0 - Cloudy 10 - - - -
23/08:30pm 12.5 CALM 0 0 1018.3 - 0.0 - - 10 - - - -
23/08:00pm 12.8 WSW 2 4 1017.9 - 0.0 - - 10 - - - -
23/07:30pm 13.1 WSW 4 5 1018.3 - 0.0 - - 10 - - - -
23/07:00pm 13.7 WSW 5 7 1018.2 - 0.0 - Partly cloudy 10 - - - -
23/06:30pm 13.8 WSW 7 10 1018.5 - 0.0 - Partly cloudy 10 - - - -
23/06:00pm 14.1 WSW 9 11 1018.4 - 0.0 - Cloudy 10 - - - -
23/05:30pm 14.5 WSW 9 11 1018.2 - 0.0 - - 10 - - - -
23/05:00pm 14.6 WSW 10 13 1018.0 - 0.0 - Partly cloudy 10 - - - -
23/04:30pm 14.2 WSW 9 12 1018.1 - 0.0 - Partly cloudy 10 - - - -
23/04:00pm 14.1 WSW 9 11 1018.4 - 0.0 - Partly cloudy 10 - - - -
23/03:30pm 15.1 WSW 9 12 1018.5 - 0.0 - Partly cloudy 10 - - - -
23/03:00pm 15.4 WSW 9 13 1018.6 - 0.0 - Mostly cloudy 10 - - - -
23/02:30pm 15.2 W 8 10 1018.6 - 0.0 - Partly cloudy 10 - - - -
23/02:00pm 15.7 WSW 9 13 1018.8 - 0.0 - Partly cloudy 10 - - - -
23/01:34pm 14.2 WSW 8 12 1019.0 - 0.0 - Partly cloudy 10 - - - -
23/01:30pm 13.8 WSW 9 12 1019.0 - 0.0 - Partly cloudy 10 - - - -
23/01:00pm 14.0 W 11 15 1019.3 - 0.0 - Partly cloudy 10 - - - -
23/12:53pm 14.5 W 11 14 1019.3 - 0.0 - Partly cloudy 10 - - - -
23/12:30pm 15.0 WSW 9 11 1019.4 - 0.0 - Partly cloudy 10 - - - -
23/12:00pm 15.4 WSW 9 13 1019.5 - 0.0 - Cloudy 10 - - - -
23/11:30am 13.6 W 5 8 1019.8 - 0.0 - Cloudy 10 - - - -
23/11:14am 12.6 WNW 5 7 1020.0 - 0.0 - Partly cloudy 10 - - - -
23/11:04am 12.7 WSW 6 9 1020.0 - 0.0 - Partly cloudy 6 - - - -
23/11:00am 12.3 WSW 7 9 1019.9 - 0.0 - Partly cloudy 4 - - - -
23/10:30am 13.4 SW 7 10 1019.7 - 0.0 - Partly cloudy 6 - - - -
23/10:27am 13.9 SW 7 10 1019.7 - 0.0 - Partly cloudy 10 - - - -
23/10:00am 13.9 W 7 10 1019.9 - 0.0 - Partly cloudy 10 - - - -
23/09:30am 13.1 W 5 7 1019.8 - 0.0 - Partly cloudy 10 - - - -
23/09:00am 12.6 NNW 4 6 1019.6 - 0.6 - Mostly cloudy 10 - - - -
23/08:30am 11.5 NW 3 5 1019.6 - 0.6 - Partly cloudy 10 - - - -
23/08:00am 11.2 WNW 3 5 1019.7 - 0.6 - Cloudy 10 - - - -
23/07:30am 10.5 NW 5 7 1019.4 - 0.6 - Cloudy 10 - - - -
23/07:15am 9.5 NW 3 6 1019.1 - 0.6 - Partly cloudy 10 - - - -
23/07:14am 9.4 NW 3 6 1019.1 - 0.6 - Partly cloudy 10 - - - -
23/07:00am 8.8 NW 5 6 1018.9 - 0.6 - Partly cloudy 2 - - - -
23/06:48am 9.0 N 5 6 1018.7 - 0.6 - Partly cloudy 0.8 - - - -
23/06:39am 9.4 NNE 5 6 1018.4 - 0.6 - Partly cloudy 6 - - - -
23/06:30am 9.7 N 5 6 1018.4 - 0.6 - Cloudy 10 - - - -
23/06:00am 9.3 N 4 5 1018.7 - 0.6 - Mostly cloudy 10 - - - -
23/05:30am 8.7 N 3 4 1018.9 - 0.6 - - 10 - - - -
23/05:00am 9.6 WSW 1 4 1019.0 - 0.6 - Partly cloudy 10 - - - -
23/04:30am 10.4 CALM 0 0 1019.1 - 0.6 - Partly cloudy 10 - - - -
23/04:00am 10.9 SW 2 4 1019.3 - 0.6 - Cloudy 10 - - - -
23/03:30am 10.5 SW 4 5 1019.5 - 0.6 - Partly cloudy 10 - - - -
23/03:06am 11.0 SW 3 5 1019.6 - 0.6 - Partly cloudy 10 - - - -
23/03:00am 11.1 SW 3 5 1019.5 - 0.6 Recent precip. Cloudy 10 - - - -
23/02:57am 11.1 SW 4 6 1019.5 - 0.6 - Partly cloudy 10 - - - -
23/02:44am 11.0 WSW 5 6 1019.6 - 0.6 - Partly cloudy 6 - - - -
23/02:35am 11.1 WSW 4 6 1019.7 - 0.4 - Partly cloudy 10 - - - -
23/02:30am 11.1 SW 3 5 1019.7 - 0.4 - Partly cloudy 10 - - - -
23/02:28am 11.2 SW 3 5 1019.7 - 0.4 - Partly cloudy 10 - - - -
23/02:26am 11.1 SW 4 5 1019.8 - 0.4 - Partly cloudy 10 - - - -
23/02:11am 11.3 WSW 5 7 1020.0 - 0.4 - Partly cloudy 4 - - - -
23/02:01am 11.3 SW 4 6 1020.0 - 0.2 - Partly cloudy 6 - - - -
23/02:00am 11.3 SW 4 6 1020.1 - 0.2 - Partly cloudy 7 - - - -
23/01:30am 11.0 WSW 5 6 1020.1 - 0.2 - Partly cloudy 10 - - - -
23/01:00am 11.2 WSW 2 4 1020.4 - 0.2 - Partly cloudy 10 - - - -
23/12:50am 11.3 SW 3 4 1020.4 - 0.2 - Partly cloudy 10 - - - -
23/12:47am 11.3 SW 4 5 1020.4 - 0.2 - Cloudy 10 - - - -
23/12:30am 11.2 SSW 5 7 1020.6 - 0.0 - Partly cloudy 3 - - - -
23/12:29am 11.3 SSW 5 7 1020.6 - 0.0 - Partly cloudy 3 - - - -
23/12:13am 10.8 CALM 0 0 1020.5 - 0.0 - Partly cloudy 6 - - - -
23/12:00am 10.5 CALM 0 0 1020.4 - 0.0 - Mostly cloudy 10 - - - -
 
Date/Time
EDT
Temp
°C
Wind Pressure Rain since
9am
mm
Weather Cloud Vis
km
Sea
Height
m
Swell
Dir  Spd
kts
Gust
kts
hPa Trend Height
m
Period
s
Dir
22/11:30pm 11.0 CALM 0 0 1020.5 - 0.0 - Partly cloudy 10 - - - -
22/11:00pm 11.4 CALM 0 0 1020.8 - 0.0 - Partly cloudy 10 - - - -
22/10:30pm 11.7 S 3 5 1021.0 - 0.0 - Partly cloudy 10 - - - -
22/10:00pm 12.1 SW 2 4 1020.9 - 0.0 - Partly cloudy 10 - - - -
22/09:30pm 12.1 SSW 3 5 1020.8 - 0.0 - Cloudy 10 - - - -
22/09:00pm 12.1 SW 1 3 1020.7 - 0.0 - Cloudy 10 - - - -
22/08:30pm 12.2 WSW 3 4 1020.6 - 0.0 - Partly cloudy 10 - - - -
22/08:00pm 12.2 SW 3 5 1020.3 - 0.0 - Partly cloudy 10 - - - -
22/07:30pm 12.3 WSW 5 7 1020.3 - 0.0 - Partly cloudy 10 - - - -
22/07:00pm 12.4 SW 6 9 1020.0 - 0.0 - Partly cloudy 10 - - - -
22/06:30pm 12.8 SSW 8 11 1019.8 - 0.0 - Partly cloudy 10 - - - -
22/06:00pm 12.9 SSW 8 12 1019.9 - 0.0 - Cloudy 10 - - - -
22/05:42pm 13.2 SSW 8 12 1019.7 - 0.0 - Partly cloudy 10 - - - -
22/05:30pm 13.4 SSW 9 14 1019.7 - 0.0 - Partly cloudy 10 - - - -
22/05:18pm 12.9 SW 7 10 1019.7 - 0.0 - Partly cloudy 10 - - - -
22/05:00pm 12.8 SSW 9 13 1019.6 - 0.0 - Partly cloudy 10 - - - -
22/04:30pm 13.7 SW 10 13 1019.6 - 0.0 - Partly cloudy 10 - - - -
22/04:00pm 14.3 SW 8 11 1019.6 - 0.0 - Cloudy 10 - - - -
22/03:30pm 13.5 SSW 9 12 1019.6 - 0.0 - Cloudy 10 - - - -
22/03:00pm 13.7 SSW 9 12 1019.6 - 0.0 - Cloudy 10 - - - -
22/02:45pm 14.6 SW 9 13 1019.8 - 0.0 - Partly cloudy 10 - - - -
22/02:30pm 14.1 SSW 7 11 1020.0 - 0.0 - Partly cloudy 10 - - - -
22/02:04pm 13.5 SW 11 18 1020.0 - 0.0 - Partly cloudy 10 - - - -
22/02:00pm 13.8 SW 11 15 1019.9 - 0.0 - Partly cloudy 10 - - - -
22/01:30pm 13.5 SW 9 13 1020.4 - 0.0 - Cloudy 10 - - - -
22/01:08pm 13.6 SSW 8 12 1020.5 - 0.0 - Cloudy 10 - - - -
22/01:00pm 13.2 SW 9 14 1020.5 - 0.0 - Cloudy 10 - - - -
22/12:49pm 13.7 SW 8 13 1020.5 - 0.0 - Partly cloudy 10 - - - -
22/12:30pm 13.6 SSW 8 13 1020.6 - 0.0 - Partly cloudy 10 - - - -
22/12:00pm 13.2 SW 9 16 1020.6 - 0.0 - Cloudy 10 - - - -
22/11:30am 13.0 SSW 9 16 1020.8 - 0.0 - Cloudy 10 - - - -
22/11:00am 13.4 SW 9 14 1020.9 - 0.0 - Partly cloudy 10 - - - -
22/10:48am 12.8 SW 9 14 1021.0 - 0.0 - Partly cloudy 10 - - - -
22/10:30am 13.1 SW 10 14 1020.9 - 0.0 - Partly cloudy 10 - - - -
22/10:28am 13.0 SW 10 15 1020.9 - 0.0 - Partly cloudy 10 - - - -
22/10:00am 12.8 SW 10 17 1020.9 - 0.0 - Partly cloudy 10 - - - -
22/09:49am 12.5 WSW 10 14 1020.8 - 0.0 - Partly cloudy 10 - - - -
22/09:35am 12.7 SW 9 13 1020.7 - 0.0 - Partly cloudy 10 - - - -
22/09:30am 12.4 SW 8 13 1020.7 - 0.0 - Partly cloudy 10 - - - -
22/09:00am 11.6 SW 7 15 1020.7 - 0.4 - Cloudy 10 - - - -
22/08:30am 11.6 SW 10 15 1020.6 - 0.4 - Partly cloudy 10 - - - -
22/08:00am 11.5 SW 8 13 1020.4 - 0.4 - Partly cloudy 10 - - - -
22/07:43am 11.2 WSW 7 9 1020.1 - 0.4 - Partly cloudy 10 - - - -
22/07:30am 11.2 WSW 7 10 1020.1 - 0.4 - Partly cloudy 5 - - - -
22/07:26am 11.2 WSW 7 9 1020.1 - 0.4 - Partly cloudy 5 - - - -
22/07:22am 11.1 WSW 8 10 1020.0 - 0.4 - Partly cloudy 10 - - - -
22/07:04am 11.0 WSW 7 10 1020.0 - 0.2 - Partly cloudy 6 - - - -
22/07:00am 10.9 WSW 8 10 1020.0 - 0.2 - Partly cloudy 10 - - - -
22/06:49am 10.7 WSW 7 10 1019.8 - 0.2 - Partly cloudy 10 - - - -
22/06:30am 10.5 WSW 7 9 1019.7 - 0.2 - Partly cloudy 10 - - - -
22/06:17am 10.6 WSW 6 9 1019.8 - 0.2 - Partly cloudy 10 - - - -
22/06:09am 10.5 WSW 6 9 1019.8 - 0.2 - Partly cloudy 10 - - - -
22/06:00am 10.6 WSW 7 10 1019.7 - 0.2 - Cloudy 7 - - - -
22/05:39am 10.5 WSW 7 10 1019.8 - 0.2 - Partly cloudy 6 - - - -
22/05:34am 10.4 WSW 6 9 1019.8 - 0.2 - Partly cloudy 10 - - - -
22/05:30am 10.3 WSW 7 9 1019.8 - 0.2 - Partly cloudy 10 - - - -
22/05:21am 10.4 SW 6 8 1019.8 - 0.2 - Partly cloudy 10 - - - -
22/05:10am 10.4 SW 7 9 1019.8 - 0.2 - Partly cloudy 10 - - - -
22/05:00am 10.6 SW 7 12 1019.9 - 0.2 - Partly cloudy 6 - - - -
22/04:49am 10.9 SW 9 13 1019.9 - 0.0 - Partly cloudy 6 - - - -
22/04:30am 11.1 WSW 7 9 1020.0 - 0.0 - Partly cloudy 10 - - - -
22/04:00am 10.9 SW 7 9 1020.2 - 0.0 - Cloudy 10 - - - -
22/03:30am 10.9 SW 9 13 1020.5 - 0.0 - Cloudy 10 - - - -
22/03:00am 10.7 WSW 10 15 1020.7 - 0.0 - Cloudy 10 - - - -
22/02:30am 10.4 WSW 10 15 1020.9 - 0.0 - Cloudy 10 - - - -
22/02:00am 10.1 SW 9 13 1021.3 - 0.0 - Partly cloudy 10 - - - -
22/01:30am 10.3 WSW 9 15 1022.0 - 0.0 - Partly cloudy 10 - - - -
22/01:25am 10.1 WSW 9 11 1022.1 - 0.0 - Partly cloudy 10 - - - -
22/01:10am 10.7 WSW 8 12 1022.2 - 0.0 - Partly cloudy 10 - - - -
22/01:00am 11.0 SW 7 10 1022.3 - 0.0 - Partly cloudy 10 - - - -
22/12:30am 11.3 SW 8 12 1022.5 - 0.0 - Partly cloudy 10 - - - -
22/12:00am 11.1 SW 9 15 1022.6 - 0.0 - Mostly cloudy 10 - - - -
 
Date/Time
EDT
Temp
°C
Wind Pressure Rain since
9am
mm
Weather Cloud Vis
km
Sea
Height
m
Swell
Dir  Spd
kts
Gust
kts
hPa Trend Height
m
Period
s
Dir
21/11:30pm 10.9 WSW 11 15 1022.8 - 0.0 - Partly cloudy 10 - - - -
21/11:00pm 11.0 SW 10 15 1023.2 - 0.0 - Partly cloudy 10 - - - -
21/10:30pm 10.7 WSW 8 13 1023.3 - 0.0 - Partly cloudy 10 - - - -
21/10:00pm 10.7 SW 9 12 1023.6 - 0.0 - Partly cloudy 10 - - - -
21/09:30pm 10.6 WSW 12 18 1023.6 - 0.0 - Partly cloudy 10 - - - -
21/09:00pm 10.9 WSW 11 15 1023.8 - 0.0 - Cloudy 10 - - - -
21/08:30pm 11.3 WSW 11 15 1023.8 - 0.0 - Partly cloudy 10 - - - -
21/08:00pm 11.7 WSW 8 12 1023.7 - 0.0 - Cloudy 10 - - - -
21/07:30pm 11.6 WSW 8 12 1023.7 - 0.0 - Partly cloudy 10 - - - -
21/07:00pm 11.9 WSW 11 15 1023.7 - 0.0 - Partly cloudy 10 - - - -
21/06:30pm 12.1 WSW 11 17 1023.8 - 0.0 - Partly cloudy 10 - - - -
21/06:00pm 12.0 WSW 10 15 1023.9 - 0.0 - Cloudy 10 - - - -
21/05:30pm 11.7 WSW 10 15 1024.2 - 0.0 - Partly cloudy 10 - - - -
21/05:00pm 12.2 WSW 14 20 1024.3 - 0.0 - Partly cloudy 10 - - - -
21/04:30pm 12.2 WSW 13 16 1024.6 - 0.0 - Partly cloudy 10 - - - -
21/04:00pm 11.6 WSW 12 19 1025.0 - 0.0 - Partly cloudy 10 - - - -
21/03:30pm 12.5 WSW 14 21 1025.3 - 0.0 - Partly cloudy 10 - - - -
21/03:20pm 12.6 WSW 16 21 1025.3 - 0.0 - Partly cloudy 10 - - - -
21/03:08pm 12.0 WSW 13 21 1025.5 - 0.0 - Partly cloudy 10 - - - -
21/03:00pm 12.1 W 12 16 1025.6 - 0.0 - Cloudy 10 - - - -
21/02:49pm 12.5 WSW 12 16 1025.7 - 0.0 - Partly cloudy 10 - - - -
21/02:31pm 11.8 WSW 17 22 1025.9 - 0.0 - Partly cloudy 6 - - - -
21/02:30pm 12.0 WSW 17 22 1025.9 - 0.0 - Partly cloudy 8 - - - -
21/02:00pm 13.5 WSW 14 19 1025.8 - 0.0 - Partly cloudy 10 - - - -
21/01:30pm 12.7 W 13 19 1026.0 - 0.0 - Partly cloudy 10 - - - -
21/01:00pm 13.0 WSW 13 17 1026.4 - 0.0 - Partly cloudy 10 - - - -
21/12:30pm 12.8 WSW 11 15 1026.8 - 0.0 - Partly cloudy 10 - - - -
21/12:00pm 12.4 WSW 12 19 1027.2 - 0.0 - Cloudy 10 - - - -
21/11:30am 12.1 WSW 11 15 1027.5 - 0.0 - Partly cloudy 10 - - - -
21/11:00am 12.5 WSW 10 14 1027.8 - 0.0 - Partly cloudy 10 - - - -
21/10:30am 12.1 WSW 9 12 1028.0 - 0.0 - Partly cloudy 10 - - - -
21/10:00am 11.7 SW 9 13 1028.0 - 0.0 - Partly cloudy 10 - - - -
21/09:30am 11.1 WSW 9 15 1028.0 - 0.0 - Cloudy 10 - - - -
21/09:00am 10.8 WSW 7 9 1028.1 - 0.0 - Cloudy 10 - - - -
21/08:30am 10.8 WSW 7 12 1027.9 - 0.0 - Partly cloudy 10 - - - -
21/08:00am 10.8 SW 8 16 1027.7 - 0.0 - Cloudy 10 - - - -
21/07:30am 10.6 SW 8 10 1027.6 - 0.0 - Cloudy 10 - - - -
21/07:00am 10.5 WSW 6 8 1027.7 - 0.0 - Cloudy 10 - - - -
21/06:30am 10.5 WSW 7 10 1027.7 - 0.0 - Cloudy 10 - - - -
21/06:00am 10.5 SW 7 11 1027.7 - 0.0 - Cloudy 10 - - - -
21/05:30am 10.5 SW 5 7 1027.7 - 0.0 - Cloudy 10 - - - -
21/05:00am 10.6 SW 7 11 1027.9 - 0.0 - Cloudy 10 - - - -
21/04:30am 10.8 SW 8 11 1028.0 - 0.0 - Partly cloudy 10 - - - -
21/04:00am 10.7 SW 8 12 1028.2 - 0.0 - Cloudy 10 - - - -
21/03:30am 10.7 SW 8 12 1028.4 - 0.0 - Cloudy 10 - - - -
21/03:00am 10.9 SW 8 12 1028.6 - 0.0 - Cloudy 10 - - - -
21/02:30am 11.1 SW 9 13 1028.8 - 0.0 - Cloudy 10 - - - -
21/02:00am 11.1 SW 5 8 1029.2 - 0.0 - Cloudy 10 - - - -
21/01:30am 11.1 SW 8 13 1029.7 - 0.0 - Cloudy 10 - - - -
21/01:00am 11.0 SW 7 10 1030.1 - 0.0 - Cloudy 10 - - - -
21/12:30am 10.9 SW 7 9 1030.1 - 0.0 - Cloudy 10 - - - -
21/12:00am 10.8 SW 6 8 1030.4 - 0.0 - Cloudy 10 - - - -
 
Date/Time
EDT
Temp
°C
Wind Pressure Rain since
9am
mm
Weather Cloud Vis
km
Sea
Height
m
Swell
Dir  Spd
kts
Gust
kts
hPa Trend Height
m
Period
s
Dir
20/11:30pm 10.7 WSW 6 8 1030.7 - 0.0 - Cloudy 10 - - - -
20/11:00pm 10.8 SW 5 8 1030.9 - 0.0 - Cloudy 10 - - - -

Other Formats:

Comma delimited format used in spreadsheet applications
http://www.bom.gov.au/fwo/IDV60701/IDV60701.94828.axf

JavaScript Object Notation format (JSON) in row-major order
http://www.bom.gov.au/fwo/IDV60701/IDV60701.94828.json